Home   Weather   Germany   Bautzen   Past weeks
Flag for Germany

Past Weather in Bautzen, Saxony, Germany — Yesterday and Last 2 Weeks

Currently: 82 °F. Passing clouds. (Weather station: Dresden-Klotzsche, Germany). See more current weather

Past Weather in Bautzen — Graph

°F

Bautzen Temperature Yesterday

Maximum temperature yesterday: 79 °F (at 3:50 pm)
Minimum temperature yesterday: 59 °F (at 1:20 am)
Average temperature yesterday: 69 °F

High & Low Weather Summary for the Past Weeks

 TemperatureHumidityPressure
High84 °F (Jul 13, 3:20 pm)100% (Jul 11, 7:20 pm)30.21 "Hg (Jul 11, 7:20 pm)
Low55 °F (Jul 20, 2:20 am)35% (Jul 24, 4:20 pm)29.71 "Hg (Jul 13, 5:20 pm)
Average67 °F72%30.02 "Hg
* Reported Jul 9 4:20 pm — Jul 24 4:20 pm, Bautzen. Weather by CustomWeather, © 2021

Note: Actual official high and low records may vary slightly from our data, if they occured in-between our weather recording intervals... More about our weather records

Bautzen Weather History for the Previous 24 Hours

Scroll right to see more
 ConditionsComfort  
Time TempWeatherWind HumidityBarometerVisibility
4:20 pm
Sat, Jul 24
82 °FPassing clouds.10 mph35%29.89 "HgN/A
3:50 pm82 °FPassing clouds.10 mph37%29.89 "HgN/A
3:20 pm82 °FPassing clouds.14 mph40%29.89 "HgN/A
2:50 pm81 °FSunny.13 mph39%29.89 "Hg10 mi
1:50 pm82 °FPassing clouds.13 mph37%29.89 "HgN/A
1:20 pm82 °FPassing clouds.10 mph40%29.89 "HgN/A
12:50 pm81 °FPassing clouds.9 mph42%29.89 "HgN/A
12:20 pm81 °FPassing clouds.5 mph45%29.89 "HgN/A
11:50 am79 °FPassing clouds.5 mph51%29.92 "HgN/A
11:20 am79 °FPassing clouds.6 mph48%29.92 "HgN/A
10:50 am77 °FPassing clouds.7 mph47%29.92 "HgN/A
10:20 am75 °FPassing clouds.3 mph54%29.92 "HgN/A
9:50 am73 °FSunny.7 mph57%29.92 "Hg10 mi
8:50 am70 °FPassing clouds.3 mph64%29.92 "HgN/A
8:20 am70 °FSunny.2 mph64%29.92 "Hg10 mi
7:50 am66 °FSunny.1 mph68%29.92 "Hg10 mi
7:20 am64 °FSunny.2 mph78%29.92 "Hg10 mi
6:50 am63 °FPassing clouds.3 mph83%29.92 "HgN/A
6:20 am61 °FSunny.2 mph83%29.92 "Hg10 mi
5:50 am63 °FSunny.3 mph73%29.92 "Hg10 mi
5:20 am63 °FSunny.3 mph73%29.92 "Hg10 mi
4:50 am63 °FPassing clouds.3 mph73%29.92 "HgN/A
4:20 am63 °FClear.6 mph73%29.92 "Hg10 mi
3:50 am64 °FClear.7 mph68%29.92 "Hg10 mi
3:20 am63 °FClear.5 mph77%29.92 "Hg10 mi
1:50 am64 °FClear.5 mph73%29.95 "Hg10 mi
1:20 am66 °FClear.3 mph68%29.98 "Hg10 mi
12:50 am66 °FClear.5 mph68%29.98 "Hg10 mi
12:20 am66 °FClear.1 mph73%29.98 "Hg10 mi
11:50 pm
Fri, Jul 23
68 °FClear.3 mph64%29.98 "Hg10 mi
11:20 pm68 °FClear.5 mph64%29.98 "Hg10 mi
10:50 pm70 °FClear.3 mph60%29.98 "Hg10 mi
10:20 pm70 °FClear.3 mph60%29.98 "Hg10 mi
9:50 pm70 °FClear.3 mph60%29.98 "Hg10 mi
9:20 pm70 °FClear.3 mph60%29.98 "Hg10 mi
8:50 pm72 °FSunny.3 mph57%29.98 "Hg10 mi
8:20 pm72 °FSunny.6 mph57%29.98 "Hg10 mi
7:50 pm73 °FSunny.5 mph53%29.98 "Hg10 mi
7:20 pm75 °FSunny.6 mph50%29.98 "Hg10 mi
6:50 pm75 °FPassing clouds.7 mph50%29.98 "HgN/A
6:20 pm77 °FPassing clouds.6 mph47%29.98 "HgN/A
5:50 pm77 °FPassing clouds.6 mph47%29.98 "HgN/A
5:20 pm79 °FSunny.5 mph45%29.98 "Hg10 mi
Weather by CustomWeather, © 2021

See weather overview